Time;durP1;ratioP1;P1;durP2;ratioP2;P2;SDS_P1;SDS_P2;PMS_P1;PMS_P2;Temp;Humidity;BMP_temperature;BMP_pressure;BME280_temperature;BME280_humidity;BME280_pressure;Samples;Min_cycle;Max_cycle;Signal;HPM_P1;HPM_P2
2023/03/18 00:01:06;;;;;;;8.13;2.58;;;;;;;11.14;81.78;100567.03;5060764;28;20033;-72
2023/03/18 00:03:33;;;;;;;6.72;2.28;;;;;;;11.08;82.33;100572.88;5048156;28;20036;-73
2023/03/18 00:06:06;;;;;;;9.38;2.70;;;;;;;11.03;83.05;100569.97;5039874;28;20043;-73
2023/03/18 00:08:32;;;;;;;8.75;2.47;;;;;;;11.01;82.82;100571.91;5051588;28;20059;-73
2023/03/18 00:10:59;;;;;;;9.48;2.45;;;;;;;10.99;83.08;100576.47;5038337;28;20040;-73
2023/03/18 00:13:26;;;;;;;7.88;2.42;;;;;;;10.93;83.51;100579.72;5038414;28;20025;-72
2023/03/18 00:15:52;;;;;;;12.23;2.85;;;;;;;10.98;83.12;100574.81;5053555;28;20040;-72
2023/03/18 00:18:18;;;;;;;12.85;3.30;;;;;;;10.99;82.94;100585.06;5043853;28;20040;-73
2023/03/18 00:20:45;;;;;;;11.38;3.30;;;;;;;11.07;82.84;100586.81;5059319;28;20128;-72
2023/03/18 00:23:11;;;;;;;19.42;2.85;;;;;;;10.97;83.01;100578.41;5042904;28;20745;-73
2023/03/18 00:25:37;;;;;;;14.30;3.00;;;;;;;10.88;83.67;100580.19;5040540;28;20056;-72
2023/03/18 00:28:06;;;;;;;10.65;3.33;;;;;;;10.80;84.29;100573.22;5041541;28;20435;-73
2023/03/18 00:30:33;;;;;;;10.02;2.65;;;;;;;10.79;84.64;100570.78;5043770;28;20086;-73
2023/03/18 00:32:59;;;;;;;12.27;3.20;;;;;;;10.77;84.99;100572.75;5050464;28;20521;-72
2023/03/18 00:35:29;;;;;;;12.40;2.92;;;;;;;10.82;85.09;100576.47;5050908;28;20037;-72
2023/03/18 00:37:57;;;;;;;18.77;3.70;;;;;;;10.81;85.22;100576.63;5054708;28;20035;-73
2023/03/18 00:40:29;;;;;;;16.00;3.00;;;;;;;10.76;85.25;100568.53;5045761;28;20091;-72
2023/03/18 00:43:06;;;;;;;7.87;3.07;;;;;;;10.68;85.59;100561.53;5041030;28;20864;-72
2023/03/18 00:45:35;;;;;;;11.57;3.22;;;;;;;10.69;85.39;100568.38;5040038;28;20037;-73
2023/03/18 00:48:02;;;;;;;11.98;2.80;;;;;;;10.62;86.12;100575.16;5037464;28;20176;-72
2023/03/18 00:50:28;;;;;;;7.07;2.50;;;;;;;10.57;86.75;100577.44;5041218;28;20029;-72
2023/03/18 00:52:54;;;;;;;13.48;2.70;;;;;;;10.52;86.55;100575.31;5043664;28;20028;-72
2023/03/18 00:55:20;;;;;;;15.95;2.97;;;;;;;10.49;87.54;100586.84;5043726;28;20029;-73
2023/03/18 00:57:46;;;;;;;8.02;2.60;;;;;;;10.45;88.28;100582.13;5041740;28;20021;-72
2023/03/18 01:00:15;;;;;;;7.70;2.95;;;;;;;10.46;88.26;100573.38;5021997;28;20186;-72
2023/03/18 01:02:43;;;;;;;13.85;2.50;;;;;;;10.43;88.28;100576.28;5041144;28;20116;-72
2023/03/18 01:05:11;;;;;;;10.68;2.67;;;;;;;10.40;88.71;100584.41;5039862;28;20523;-73
2023/03/18 01:07:40;;;;;;;9.30;2.75;;;;;;;10.43;90.16;100587.47;5029727;28;20025;-73
2023/03/18 01:10:06;;;;;;;11.93;3.50;;;;;;;10.39;92.48;100588.75;5029977;28;20051;-72
2023/03/18 01:12:32;;;;;;;9.32;3.25;;;;;;;10.34;93.63;100596.22;5046106;28;20029;-73
2023/03/18 01:14:58;;;;;;;10.60;3.15;;;;;;;10.32;94.98;100603.31;5050940;28;20033;-73
2023/03/18 01:17:24;;;;;;;7.97;2.67;;;;;;;10.26;96.49;100591.78;5032149;28;20036;-72
2023/03/18 01:19:50;;;;;;;9.73;3.92;;;;;;;10.27;97.10;100590.81;5060351;28;20036;-72
2023/03/18 01:22:16;;;;;;;14.07;3.08;;;;;;;10.25;97.76;100599.72;5042370;28;20109;-72
2023/03/18 01:24:46;;;;;;;12.70;3.15;;;;;;;10.24;98.65;100598.09;5034598;28;20093;-73
2023/03/18 01:27:12;;;;;;;8.50;2.78;;;;;;;10.20;99.60;100605.38;5047323;28;20033;-72
2023/03/18 01:29:40;;;;;;;9.70;2.72;;;;;;;10.16;100.00;100601.47;5025869;23;20036;-71
2023/03/18 01:32:12;;;;;;;11.55;2.92;;;;;;;10.12;100.00;100590.63;5041914;28;20060;-72
2023/03/18 01:34:37;;;;;;;10.48;3.85;;;;;;;10.12;100.00;100588.03;5045825;28;20514;-72
2023/03/18 01:37:04;;;;;;;12.30;3.05;;;;;;;10.09;100.00;100571.97;5046602;28;20107;-72
2023/03/18 01:39:33;;;;;;;11.65;3.10;;;;;;;10.08;100.00;100566.00;5058905;28;20025;-72
2023/03/18 01:41:59;;;;;;;13.20;4.40;;;;;;;10.08;100.00;100552.25;5029617;28;20079;-72
2023/03/18 01:44:30;;;;;;;11.90;3.47;;;;;;;10.03;100.00;100560.47;5043243;28;21703;-72
2023/03/18 01:46:57;;;;;;;11.13;3.13;;;;;;;10.04;100.00;100563.88;5022060;28;20087;-72
2023/03/18 01:49:51;;;;;;;9.48;2.83;;;;;;;10.05;100.00;100568.09;5042631;28;20514;-72
2023/03/18 01:52:26;;;;;;;9.45;3.25;;;;;;;10.05;100.00;100570.69;5058068;28;20033;-72
2023/03/18 01:54:59;;;;;;;11.43;4.28;;;;;;;10.05;100.00;100575.84;5035581;28;20041;-72
2023/03/18 01:57:26;;;;;;;7.95;2.90;;;;;;;10.02;100.00;100581.34;5041904;28;20119;-72
2023/03/18 01:59:54;;;;;;;8.65;3.22;;;;;;;10.00;100.00;100581.53;5037108;28;20075;-72
2023/03/18 02:02:20;;;;;;;13.13;3.53;;;;;;;9.98;100.00;100578.25;5040068;28;20068;-72
2023/03/18 02:04:55;;;;;;;9.65;3.03;;;;;;;9.99;100.00;100579.09;5021972;28;20899;-72
2023/03/18 02:07:24;;;;;;;10.20;3.50;;;;;;;9.92;100.00;100584.06;5043795;28;20455;-72
2023/03/18 02:09:52;;;;;;;10.45;3.70;;;;;;;9.92;100.00;100581.47;5024085;28;20180;-72
2023/03/18 02:12:23;;;;;;;9.63;3.67;;;;;;;9.82;100.00;100573.03;5040583;28;20441;-72
2023/03/18 02:14:51;;;;;;;12.93;4.00;;;;;;;9.73;100.00;100580.75;5052614;28;21736;-72
2023/03/18 02:17:23;;;;;;;13.73;3.22;;;;;;;9.70;100.00;100575.06;5040079;28;20325;-72
2023/03/18 02:20:08;;;;;;;11.88;3.50;;;;;;;9.65;100.00;100583.31;5020570;28;20076;-72
2023/03/18 02:22:38;;;;;;;8.63;3.58;;;;;;;9.62;100.00;100577.66;5040247;28;20033;-72
2023/03/18 02:25:36;;;;;;;9.80;3.80;;;;;;;9.59;100.00;100577.94;5037776;28;20049;-72
2023/03/18 02:28:08;;;;;;;7.55;2.83;;;;;;;9.54;100.00;100576.63;5057594;28;20758;-72
2023/03/18 02:30:42;;;;;;;9.35;3.35;;;;;;;9.54;100.00;100571.44;5040561;28;20048;-72
2023/03/18 02:33:10;;;;;;;8.02;3.25;;;;;;;9.52;100.00;100583.75;5040365;28;20028;-72
2023/03/18 02:35:36;;;;;;;8.55;3.42;;;;;;;9.48;100.00;100579.03;5043110;28;20394;-72
2023/03/18 02:38:02;;;;;;;9.80;3.22;;;;;;;9.42;100.00;100588.22;5026961;28;20032;-72
2023/03/18 02:40:31;;;;;;;14.30;3.50;;;;;;;9.41;100.00;100580.63;5029520;28;20048;-72
2023/03/18 02:43:15;;;;;;;13.48;3.45;;;;;;;9.32;100.00;100575.41;5043115;28;20028;-72
2023/03/18 02:45:49;;;;;;;6.90;3.17;;;;;;;9.26;100.00;100576.00;5057596;28;20029;-71
2023/03/18 02:48:19;;;;;;;11.52;3.40;;;;;;;9.19;100.00;100581.94;5036187;28;20400;-72
2023/03/18 02:50:46;;;;;;;11.20;3.63;;;;;;;9.14;100.00;100574.63;5037157;28;20047;-71
2023/03/18 02:53:12;;;;;;;9.80;3.30;;;;;;;9.10;100.00;100571.53;5037094;28;20076;-71
2023/03/18 02:55:39;;;;;;;10.73;4.28;;;;;;;9.06;100.00;100579.75;5053340;28;20033;-72
2023/03/18 02:58:06;;;;;;;11.52;2.97;;;;;;;9.03;100.00;100578.28;5024020;28;20040;-72
2023/03/18 03:00:32;;;;;;;10.13;3.10;;;;;;;8.99;100.00;100576.97;5043306;28;20037;-72
2023/03/18 03:02:58;;;;;;;9.90;2.95;;;;;;;8.95;100.00;100581.63;5041662;28;20040;-71
2023/03/18 03:05:25;;;;;;;11.63;3.60;;;;;;;8.91;100.00;100594.97;5043736;28;20041;-72
2023/03/18 03:07:51;;;;;;;8.68;3.53;;;;;;;8.88;100.00;100592.72;5024330;28;20029;-71
2023/03/18 03:10:17;;;;;;;10.00;3.05;;;;;;;8.82;100.00;100591.53;5039851;28;20040;-71
2023/03/18 03:12:44;;;;;;;11.30;3.30;;;;;;;8.76;100.00;100598.13;5026790;28;20445;-71
2023/03/18 03:15:10;;;;;;;14.73;3.20;;;;;;;8.72;100.00;100596.81;5024273;28;20503;-71
2023/03/18 03:17:41;;;;;;;7.82;3.40;;;;;;;8.67;100.00;100595.63;5039074;28;20037;-72
2023/03/18 03:20:08;;;;;;;10.68;3.50;;;;;;;8.62;100.00;100596.03;5056972;28;20044;-72
2023/03/18 03:22:34;;;;;;;8.88;3.15;;;;;;;8.54;100.00;100588.22;5060655;28;20453;-72
2023/03/18 03:25:00;;;;;;;7.85;2.70;;;;;;;8.50;100.00;100602.41;5040989;28;20029;-72
2023/03/18 03:27:26;;;;;;;5.95;3.08;;;;;;;8.45;100.00;100605.41;5038034;28;20582;-71
2023/03/18 03:29:54;;;;;;;11.50;3.40;;;;;;;8.41;100.00;100608.44;5057806;28;20048;-72
2023/03/18 03:32:20;;;;;;;10.90;2.65;;;;;;;8.37;100.00;100600.16;5041609;28;20116;-72
2023/03/18 03:34:48;;;;;;;4.88;2.75;;;;;;;8.31;100.00;100605.91;5041214;28;20036;-71
2023/03/18 03:37:13;;;;;;;9.45;2.90;;;;;;;8.28;100.00;100609.56;5024684;28;20059;-72
2023/03/18 03:39:39;;;;;;;11.90;3.25;;;;;;;8.26;100.00;100615.84;5042826;28;20041;-71
2023/03/18 03:42:04;;;;;;;8.23;2.85;;;;;;;8.24;100.00;100610.84;5042548;28;20040;-71
2023/03/18 03:44:30;;;;;;;8.95;3.03;;;;;;;8.19;100.00;100610.44;5040790;28;20037;-72
2023/03/18 03:46:56;;;;;;;8.32;3.03;;;;;;;8.17;100.00;100620.09;5041564;28;20032;-71
2023/03/18 03:49:23;;;;;;;8.05;3.00;;;;;;;8.15;100.00;100619.44;5043685;28;20446;-72
2023/03/18 03:51:48;;;;;;;12.00;3.20;;;;;;;8.11;100.00;100621.50;5041113;28;20029;-72
2023/03/18 03:54:14;;;;;;;9.85;3.60;;;;;;;8.09;100.00;100625.19;5026820;28;20517;-72
2023/03/18 03:56:41;;;;;;;9.32;3.22;;;;;;;8.06;100.00;100634.06;5056937;28;20438;-72
2023/03/18 03:59:07;;;;;;;13.63;3.33;;;;;;;8.06;100.00;100641.81;5042242;28;20558;-71
2023/03/18 04:02:02;;;;;;;9.27;3.42;;;;;;;8.04;100.00;100635.94;5008467;28;20041;-71
2023/03/18 04:04:28;;;;;;;7.53;2.78;;;;;;;8.02;100.00;100648.19;5040958;28;20029;-71
2023/03/18 04:06:54;;;;;;;8.43;3.38;;;;;;;8.01;100.00;100646.56;5046713;28;20021;-71
2023/03/18 04:09:21;;;;;;;9.05;3.03;;;;;;;7.99;100.00;100649.28;5045729;28;20107;-72
2023/03/18 04:11:47;;;;;;;11.15;3.35;;;;;;;7.99;100.00;100645.91;5027417;28;20052;-71
2023/03/18 04:14:12;;;;;;;8.20;2.90;;;;;;;7.99;100.00;100649.28;5042826;28;20562;-72
2023/03/18 04:16:39;;;;;;;19.42;3.28;;;;;;;7.99;100.00;100651.06;5045582;28;20034;-71
2023/03/18 04:19:06;;;;;;;9.88;2.88;;;;;;;7.99;100.00;100644.13;5045037;28;20033;-71
2023/03/18 04:21:32;;;;;;;10.50;3.22;;;;;;;7.99;100.00;100653.66;5030267;28;20777;-71
2023/03/18 04:23:58;;;;;;;9.57;3.45;;;;;;;7.98;100.00;100655.41;5044533;28;20040;-71
2023/03/18 04:26:24;;;;;;;14.65;3.58;;;;;;;7.98;100.00;100660.56;5045089;28;20110;-71
2023/03/18 04:28:52;;;;;;;13.98;4.00;;;;;;;7.98;100.00;100659.75;5048750;28;20029;-72
2023/03/18 04:31:17;;;;;;;8.50;3.20;;;;;;;7.98;100.00;100660.56;5046522;28;20044;-71
2023/03/18 04:33:43;;;;;;;8.38;3.38;;;;;;;8.01;100.00;100661.25;5044001;28;20037;-71
2023/03/18 04:36:09;;;;;;;6.55;3.72;;;;;;;8.03;100.00;100664.50;5047346;28;20032;-71
2023/03/18 04:38:37;;;;;;;10.48;4.15;;;;;;;8.05;100.00;100660.00;5030027;28;20044;-72
2023/03/18 04:41:05;;;;;;;11.38;3.85;;;;;;;8.04;100.00;100664.34;5046631;28;20479;-71
2023/03/18 04:43:31;;;;;;;9.30;3.55;;;;;;;8.05;100.00;100663.41;5023884;28;20047;-72
2023/03/18 04:45:57;;;;;;;6.50;3.40;;;;;;;8.06;100.00;100671.97;5048741;28;20033;-71
2023/03/18 04:48:23;;;;;;;10.63;3.55;;;;;;;8.05;100.00;100676.31;5045579;28;20403;-72
2023/03/18 04:50:50;;;;;;;11.07;3.47;;;;;;;8.05;100.00;100680.69;5040053;28;20536;-71
2023/03/18 04:53:22;;;;;;;10.02;3.40;;;;;;;8.05;100.00;100681.47;5045210;28;20032;-72
2023/03/18 04:55:49;;;;;;;8.02;3.60;;;;;;;8.03;100.00;100673.06;5045579;28;20037;-71
2023/03/18 04:58:16;;;;;;;9.70;3.28;;;;;;;8.04;100.00;100676.44;5067267;28;20094;-71
2023/03/18 05:00:56;;;;;;;9.55;3.53;;;;;;;8.02;100.00;100679.16;5030452;28;20033;-71
2023/03/18 05:03:28;;;;;;;13.98;4.20;;;;;;;8.01;100.00;100674.97;5045933;28;20032;-71
2023/03/18 05:05:54;;;;;;;11.88;3.83;;;;;;;8.03;100.00;100680.00;5047682;28;20124;-72
2023/03/18 05:08:27;;;;;;;;;;;;;;;8.10;100.00;100681.03;5048730;28;20120;-71
2023/03/18 05:10:53;;;;;;;11.38;3.80;;;;;;;8.04;100.00;100684.19;5046736;28;19947;-71
2023/03/18 05:13:19;;;;;;;13.15;4.43;;;;;;;7.98;100.00;100675.25;5046398;28;20394;-71
2023/03/18 05:15:45;;;;;;;10.43;3.95;;;;;;;7.95;100.00;100680.72;5059869;28;20494;-71
2023/03/18 05:18:11;;;;;;;13.95;4.85;;;;;;;7.99;100.00;100682.88;5047576;28;20037;-71
2023/03/18 05:20:38;;;;;;;8.65;3.97;;;;;;;7.96;100.00;100683.13;5047326;28;20044;-72
2023/03/18 05:23:04;;;;;;;9.88;4.07;;;;;;;7.95;100.00;100684.09;5044991;28;20163;-71
2023/03/18 05:25:47;;;;;;;10.85;3.90;;;;;;;7.95;100.00;100688.47;5048721;28;20116;-71
2023/03/18 05:28:12;;;;;;;10.15;4.25;;;;;;;7.97;100.00;100687.34;5046153;28;20017;-71
2023/03/18 05:30:47;;;;;;;11.27;4.10;;;;;;;7.98;100.00;100685.56;5046644;28;20119;-71
2023/03/18 05:33:14;;;;;;;9.70;4.97;;;;;;;8.03;100.00;100683.41;5047372;28;20052;-71
2023/03/18 05:35:46;;;;;;;9.15;4.90;;;;;;;8.06;100.00;100687.44;5030612;28;20124;-71
2023/03/18 05:38:13;;;;;;;9.02;5.22;;;;;;;8.08;100.00;100693.28;5042169;28;20403;-71
2023/03/18 05:40:39;;;;;;;8.63;5.13;;;;;;;8.14;100.00;100695.31;5045261;28;20045;-71
2023/03/18 05:43:15;;;;;;;15.18;5.50;;;;;;;8.14;100.00;100696.13;5048418;28;20060;-71
2023/03/18 05:45:47;;;;;;;12.33;4.73;;;;;;;8.15;100.00;100694.34;5047406;28;20047;-71
2023/03/18 05:48:16;;;;;;;11.52;5.28;;;;;;;8.14;100.00;100708.22;5045180;28;20045;-71
2023/03/18 05:50:49;;;;;;;18.83;5.63;;;;;;;8.14;100.00;100703.88;5045421;28;20517;-71
2023/03/18 05:53:18;;;;;;;13.15;5.88;;;;;;;8.16;100.00;100706.31;5029377;28;20064;-71
2023/03/18 05:55:47;;;;;;;10.68;6.05;;;;;;;8.18;100.00;100714.75;5045180;28;20037;-71
2023/03/18 05:58:14;;;;;;;10.55;5.85;;;;;;;8.19;100.00;100716.34;5027642;28;20040;-71
2023/03/18 06:00:42;;;;;;;10.52;5.32;;;;;;;8.21;100.00;100714.44;5061351;28;20037;-71
2023/03/18 06:03:09;;;;;;;10.38;5.88;;;;;;;8.28;100.00;100718.09;5030841;28;20059;-71
2023/03/18 06:05:34;;;;;;;16.42;6.75;;;;;;;8.25;100.00;100720.13;5046244;28;20041;-71
2023/03/18 06:08:00;;;;;;;14.00;6.32;;;;;;;8.27;100.00;100718.22;5027513;28;20017;-71
2023/03/18 06:10:26;;;;;;;14.00;6.63;;;;;;;8.30;100.00;100713.59;5043764;28;20045;-71
2023/03/18 06:12:54;;;;;;;13.18;6.53;;;;;;;8.33;100.00;100723.63;5037757;28;20052;-71
2023/03/18 06:15:21;;;;;;;11.88;6.93;;;;;;;8.28;100.00;100728.41;5045048;28;20080;-71
2023/03/18 06:17:47;;;;;;;11.15;5.28;;;;;;;8.25;100.00;100722.72;5027874;28;20036;-71
2023/03/18 06:20:14;;;;;;;14.70;5.93;;;;;;;8.22;100.00;100718.66;5044362;28;20040;-71
2023/03/18 06:22:42;;;;;;;12.43;6.00;;;;;;;8.20;100.00;100718.00;5063318;28;20033;-71
2023/03/18 06:25:08;;;;;;;9.30;5.70;;;;;;;8.18;100.00;100723.28;5043230;28;20124;-72
2023/03/18 06:27:37;;;;;;;16.00;6.03;;;;;;;8.18;100.00;100730.25;5043625;28;20373;-71
2023/03/18 06:30:04;;;;;;;13.80;6.60;;;;;;;8.18;100.00;100727.66;5042739;28;20525;-72
2023/03/18 06:32:32;;;;;;;15.85;6.63;;;;;;;8.20;100.00;100733.50;5049166;28;20044;-72
2023/03/18 06:34:59;;;;;;;14.07;7.32;;;;;;;8.25;100.00;100733.06;5058677;28;20048;-71
2023/03/18 06:37:27;;;;;;;15.80;7.93;;;;;;;8.30;100.00;100733.44;5028146;28;20077;-71
2023/03/18 06:39:53;;;;;;;14.82;7.07;;;;;;;8.31;100.00;100732.50;5040152;28;20454;-71
2023/03/18 06:42:18;;;;;;;13.00;7.50;;;;;;;8.41;100.00;100735.84;5061563;28;20033;-72
2023/03/18 06:44:50;;;;;;;13.80;6.57;;;;;;;8.57;100.00;100736.06;5025547;28;20056;-72
2023/03/18 06:47:21;;;;;;;14.20;7.00;;;;;;;8.93;100.00;100743.09;5028015;28;21450;-71
2023/03/18 06:49:55;;;;;;;11.18;6.78;;;;;;;9.50;100.00;100733.22;5049398;28;20041;-71
2023/03/18 06:52:27;;;;;;;;;;;;;;;10.11;100.00;100741.03;5043537;28;20029;-72
2023/03/18 06:54:59;;;;;;;11.30;5.60;;;;;;;10.43;100.00;100730.03;5040167;28;19924;-71
2023/03/18 06:57:25;;;;;;;15.57;6.47;;;;;;;10.89;100.00;100732.28;5027945;28;20025;-71
2023/03/18 06:59:52;;;;;;;11.05;5.28;;;;;;;11.57;100.00;100732.97;5044763;28;20052;-72
2023/03/18 07:02:18;;;;;;;12.50;6.05;;;;;;;12.30;96.01;100731.16;5028109;28;20031;-72
2023/03/18 07:04:44;;;;;;;10.80;5.28;;;;;;;13.13;92.17;100721.91;5041433;28;20674;-72
2023/03/18 07:07:10;;;;;;;12.35;5.03;;;;;;;13.64;88.79;100722.16;5058883;28;20029;-71
2023/03/18 07:09:36;;;;;;;10.77;4.63;;;;;;;14.20;86.40;100732.13;5047268;28;20618;-72
2023/03/18 07:12:02;;;;;;;6.78;4.05;;;;;;;14.27;81.66;100727.81;5044704;28;20047;-72
2023/03/18 07:14:29;;;;;;;9.98;4.28;;;;;;;14.53;81.38;100729.94;5043422;28;20119;-71
2023/03/18 07:16:55;;;;;;;8.48;4.03;;;;;;;14.56;79.94;100734.81;5058190;28;20032;-72
2023/03/18 07:19:21;;;;;;;7.78;3.42;;;;;;;14.16;81.67;100739.50;5046461;28;20486;-72
2023/03/18 07:21:48;;;;;;;8.95;3.90;;;;;;;13.93;83.19;100742.22;5060497;28;20109;-72
2023/03/18 07:24:16;;;;;;;6.88;3.58;;;;;;;13.96;82.99;100738.47;5043045;28;20029;-72
2023/03/18 07:26:52;;;;;;;9.82;3.70;;;;;;;14.00;80.88;100742.31;5054685;28;20549;-72
2023/03/18 07:29:18;;;;;;;5.88;2.97;;;;;;;13.70;81.39;100747.50;5038118;28;20399;-71
2023/03/18 07:31:45;;;;;;;5.22;3.28;;;;;;;13.14;84.17;100746.97;5043092;28;20511;-71
2023/03/18 07:34:13;;;;;;;6.88;3.45;;;;;;;12.91;85.85;100755.56;5039105;28;20391;-71
2023/03/18 07:51:48;;;;;;;6.57;4.43;;;;;;;13.23;86.17;100754.53;5045417;28;20545;-72
2023/03/18 12:41:01;;;;;;;;;;;;;;;17.61;58.27;100756.78;5049703;28;20043;-73
2023/03/18 13:02:47;;;;;;;1.73;0.73;;;;;;;17.26;57.75;100751.72;5040656;28;20052;-73
2023/03/18 13:05:31;;;;;;;3.22;0.90;;;;;;;17.13;58.76;100757.75;5042352;28;21695;-73
2023/03/18 13:08:06;;;;;;;4.25;1.23;;;;;;;17.25;57.62;100763.25;5045343;28;20025;-73
2023/03/18 13:10:35;;;;;;;1.98;0.80;;;;;;;17.26;56.77;100766.66;5043634;28;20041;-74
2023/03/18 13:13:06;;;;;;;1.95;0.90;;;;;;;17.17;58.96;100770.47;5045776;28;20052;-73
2023/03/18 13:23:56;;;;;;;1.20;0.80;;;;;;;16.87;64.64;100776.84;5054669;28;20044;-74
2023/03/18 13:26:30;;;;;;;1.45;0.90;;;;;;;16.80;67.07;100777.81;5053500;28;20039;-73
2023/03/18 13:29:09;;;;;;;0.82;0.63;;;;;;;16.62;67.84;100789.66;5056957;28;20040;-74
2023/03/18 13:31:44;;;;;;;2.70;0.80;;;;;;;16.60;69.20;100789.03;5059860;28;20634;-73
2023/03/18 13:34:25;;;;;;;4.72;0.98;;;;;;;16.02;73.83;100799.81;5038994;28;20037;-73
2023/03/18 13:48:39;;;;;;;3.67;1.15;;;;;;;15.32;83.58;100791.81;5046862;28;20043;-72
2023/03/18 13:51:39;;;;;;;3.00;0.93;;;;;;;15.25;85.10;100779.69;5043225;28;20045;-72
2023/03/18 15:06:22;;;;;;;5.45;1.85;;;;;;;17.00;65.50;100712.44;5021751;28;20095;-78
2023/03/18 15:08:58;;;;;;;9.45;3.20;;;;;;;16.87;66.70;100707.97;4992318;28;20120;-77
2023/03/18 15:11:23;;;;;;;8.23;2.40;;;;;;;16.85;66.46;100715.22;5030445;28;20052;-78
2023/03/18 15:13:53;;;;;;;5.40;2.85;;;;;;;16.88;66.21;100706.97;5014476;28;20049;-76
2023/03/18 15:16:21;;;;;;;17.65;9.48;;;;;;;16.93;66.54;100704.56;5006581;28;20483;-75
2023/03/18 15:18:52;;;;;;;7.82;2.38;;;;;;;16.96;66.13;100701.53;5009884;28;20037;-76
2023/03/18 15:21:31;;;;;;;5.53;1.52;;;;;;;16.83;65.58;100706.78;5019125;28;20481;-76
2023/03/18 15:24:03;;;;;;;6.32;1.52;;;;;;;16.83;65.37;100704.94;5025271;28;20116;-76
2023/03/18 15:26:33;;;;;;;6.50;2.05;;;;;;;16.58;66.70;100703.88;5025669;28;20052;-76
2023/03/18 15:29:01;;;;;;;4.47;2.10;;;;;;;16.49;67.44;100705.84;5010597;28;20045;-76
2023/03/18 15:31:36;;;;;;;4.30;1.40;;;;;;;16.52;66.08;100703.66;4991696;28;20036;-78
2023/03/18 15:34:26;;;;;;;5.43;1.75;;;;;;;16.42;67.25;100697.97;4990574;28;20051;-79
2023/03/18 15:36:54;;;;;;;8.88;2.50;;;;;;;16.35;68.19;100697.16;5026755;28;20117;-79
2023/03/18 15:39:37;;;;;;;4.85;1.30;;;;;;;16.43;67.15;100698.81;4994622;28;20033;-79
2023/03/18 15:42:11;;;;;;;;;;;;;;;16.57;64.01;100699.63;5012965;28;20041;-78
2023/03/18 15:44:38;;;;;;;5.88;1.40;;;;;;;16.73;63.05;100702.69;5007665;28;19925;-76
2023/03/18 15:47:28;;;;;;;4.00;1.65;;;;;;;16.78;64.25;100699.47;5011868;28;20021;-78
2023/03/18 15:50:08;;;;;;;9.43;3.20;;;;;;;16.77;63.26;100699.69;5020559;28;20042;-78
2023/03/18 15:52:38;;;;;;;7.95;2.47;;;;;;;16.70;63.82;100697.84;5009732;28;20064;-78
2023/03/18 15:55:25;;;;;;;4.30;1.58;;;;;;;16.64;63.63;100697.84;5026853;28;20072;-79
2023/03/18 15:57:52;;;;;;;6.15;2.00;;;;;;;16.82;62.35;100697.25;5036461;28;20044;-78
2023/03/18 16:00:19;;;;;;;3.15;1.25;;;;;;;16.84;63.42;100697.88;5009143;28;20057;-78
2023/03/18 16:02:45;;;;;;;9.90;2.05;;;;;;;16.88;66.04;100692.06;5026096;28;20118;-80
2023/03/18 16:05:23;;;;;;;9.55;1.63;;;;;;;16.75;66.58;100699.88;5016869;28;20093;-80
2023/03/18 16:07:51;;;;;;;8.48;2.88;;;;;;;16.68;67.46;100699.06;5032095;28;20033;-80
2023/03/18 16:10:21;;;;;;;5.80;2.00;;;;;;;16.66;69.09;100701.06;5014205;28;20033;-80
2023/03/18 16:12:50;;;;;;;5.22;2.08;;;;;;;16.68;69.65;100706.91;5032919;28;20069;-80
2023/03/18 16:15:21;;;;;;;5.97;1.92;;;;;;;16.76;68.44;100708.53;5030913;28;20516;-79
2023/03/18 16:17:54;;;;;;;5.82;2.10;;;;;;;16.77;67.83;100704.91;5013872;28;20483;-77
2023/03/18 16:20:26;;;;;;;4.00;2.00;;;;;;;16.63;69.13;100706.69;5012758;28;20068;-78
2023/03/18 16:22:52;;;;;;;8.65;2.15;;;;;;;16.58;70.08;100707.28;5043885;28;20069;-78
2023/03/18 16:25:18;;;;;;;7.00;2.22;;;;;;;16.63;70.33;100701.44;5001176;28;20049;-78
2023/03/18 16:27:49;;;;;;;7.55;2.00;;;;;;;16.64;62.91;100708.31;5014819;28;20025;-77
2023/03/18 16:30:27;;;;;;;3.58;1.30;;;;;;;16.67;63.19;100703.50;4995969;28;20038;-79
2023/03/18 16:32:53;;;;;;;8.82;1.88;;;;;;;16.62;62.61;100708.50;5033868;28;20052;-78
2023/03/18 16:35:23;;;;;;;7.35;2.55;;;;;;;16.65;62.25;100707.28;5010726;28;20096;-79
2023/03/18 16:37:49;;;;;;;5.60;1.42;;;;;;;16.55;62.54;100710.28;5015955;28;20059;-78
2023/03/18 16:40:22;;;;;;;7.38;1.25;;;;;;;16.44;62.76;100711.66;5028280;28;20045;-79
2023/03/18 16:42:49;;;;;;;4.55;1.52;;;;;;;16.37;63.53;100715.25;4996429;28;20140;-80
2023/03/18 16:45:16;;;;;;;5.07;2.58;;;;;;;16.35;63.60;100713.66;5028248;28;20603;-79
2023/03/18 16:47:44;;;;;;;4.13;1.55;;;;;;;16.33;61.84;100717.47;5013228;28;20060;-79
2023/03/18 16:50:23;;;;;;;4.25;1.95;;;;;;;16.22;62.46;100718.84;5026949;28;20522;-81
2023/03/18 16:52:49;;;;;;;3.45;1.45;;;;;;;16.04;62.38;100718.56;5014063;28;20029;-82
2023/03/18 16:55:17;;;;;;;4.40;1.67;;;;;;;15.92;62.86;100713.88;4995507;28;20041;-81
2023/03/18 16:57:50;;;;;;;5.05;1.55;;;;;;;15.95;62.13;100721.34;5029147;28;20033;-81
2023/03/18 17:00:23;;;;;;;3.17;1.30;;;;;;;15.84;62.38;100719.28;5009808;28;20038;-80
2023/03/18 17:02:51;;;;;;;3.78;1.33;;;;;;;15.80;62.99;100727.69;5013302;28;20137;-82
2023/03/18 17:05:18;;;;;;;2.72;1.00;;;;;;;15.80;62.35;100717.22;5030278;28;20045;-81
2023/03/18 17:07:45;;;;;;;4.38;1.85;;;;;;;15.72;62.58;100723.38;5010912;28;20029;-83
2023/03/18 17:10:13;;;;;;;10.13;3.42;;;;;;;15.64;62.44;100718.31;4996926;28;20044;-80
2023/03/18 17:12:48;;;;;;;15.70;5.88;;;;;;;15.61;62.50;100726.53;5015487;28;20036;-83
2023/03/18 17:15:16;;;;;;;5.97;1.90;;;;;;;15.51;62.79;100729.47;5014814;28;20038;-81
2023/03/18 17:17:42;;;;;;;7.43;3.63;;;;;;;15.44;63.57;100732.03;5013904;28;20612;-82
2023/03/18 17:20:19;;;;;;;9.25;3.90;;;;;;;15.37;64.21;100734.59;4999743;28;20399;-82
2023/03/18 17:22:46;;;;;;;22.92;7.40;;;;;;;15.31;64.70;100737.16;5017882;28;20041;-82
2023/03/18 17:25:12;;;;;;;25.67;9.00;;;;;;;15.23;66.00;100732.06;5032455;28;20434;-82
2023/03/18 17:28:00;;;;;;;12.63;4.15;;;;;;;15.16;65.02;100734.59;5011441;28;20040;-82
2023/03/18 17:30:38;;;;;;;8.20;3.30;;;;;;;15.07;65.53;100739.16;5012676;28;20068;-81
2023/03/18 17:33:19;;;;;;;5.20;2.22;;;;;;;15.02;65.86;100740.72;5013535;28;20048;-81
2023/03/18 17:35:44;;;;;;;4.32;1.40;;;;;;;15.01;65.44;100741.69;4994199;28;20034;-81
2023/03/18 17:38:10;;;;;;;4.13;1.25;;;;;;;14.92;67.14;100741.84;5014400;28;20037;-81
2023/03/18 17:40:35;;;;;;;3.25;1.17;;;;;;;14.83;67.80;100748.16;4988463;28;20037;-81
2023/03/18 17:43:01;;;;;;;4.43;1.13;;;;;;;14.73;68.35;100742.41;5011434;28;20037;-82
2023/03/18 17:45:32;;;;;;;3.53;1.10;;;;;;;14.67;68.58;100746.56;5031123;28;20038;-80
2023/03/18 17:48:25;;;;;;;2.60;1.30;;;;;;;14.58;69.25;100750.31;5031922;28;20541;-81
2023/03/18 17:50:54;;;;;;;2.95;1.50;;;;;;;14.50;70.35;100752.97;5031586;28;20502;-81
2023/03/18 17:53:32;;;;;;;8.20;2.03;;;;;;;14.39;71.29;100759.47;5014161;28;20036;-82
2023/03/18 17:55:58;;;;;;;3.55;1.90;;;;;;;14.30;72.29;100755.34;5013601;28;20033;-81
2023/03/18 17:58:27;;;;;;;4.97;2.08;;;;;;;14.25;72.72;100755.09;5008751;28;20038;-81
2023/03/18 18:00:53;;;;;;;8.25;1.90;;;;;;;14.18;73.27;100762.81;5035004;28;20033;-81
2023/03/18 18:03:26;;;;;;;4.18;1.80;;;;;;;14.07;73.83;100758.88;5012347;28;20765;-82
2023/03/18 18:05:54;;;;;;;5.60;2.58;;;;;;;13.98;74.43;100763.34;5028843;28;20660;-81
2023/03/18 18:08:21;;;;;;;6.70;2.00;;;;;;;13.93;74.77;100759.66;5010937;28;20049;-81
2023/03/18 18:10:47;;;;;;;4.10;1.50;;;;;;;13.88;75.05;100767.19;5012202;28;20505;-82
2023/03/18 18:13:19;;;;;;;5.80;2.28;;;;;;;13.79;75.37;100759.47;4993583;28;20034;-80
2023/03/18 18:15:45;;;;;;;6.57;2.80;;;;;;;13.70;75.45;100763.13;5008135;28;20037;-82
2023/03/18 18:18:24;;;;;;;8.63;4.50;;;;;;;13.61;75.66;100767.59;5031491;28;20025;-80
2023/03/18 18:20:53;;;;;;;7.30;4.25;;;;;;;13.51;76.02;100767.06;5025876;28;20124;-81
2023/03/18 18:23:34;;;;;;;7.22;4.05;;;;;;;13.42;76.47;100778.53;4992858;28;20414;-81
2023/03/18 18:26:03;;;;;;;7.35;2.92;;;;;;;13.32;77.15;100773.56;5009944;28;20040;-80